sensor_id;sensor_type;location;lat;lon;timestamp;P1;durP1;ratioP1;P2;durP2;ratioP2
75044;SDS011;63614;56.026;35.960;2023-08-07T00:01:54;14.80;;;5.95;;
75044;SDS011;63614;56.026;35.960;2023-08-07T00:04:20;15.50;;;6.00;;
75044;SDS011;63614;56.026;35.960;2023-08-07T00:06:46;13.25;;;6.10;;
75044;SDS011;63614;56.026;35.960;2023-08-07T00:09:12;14.07;;;5.77;;
75044;SDS011;63614;56.026;35.960;2023-08-07T00:11:38;12.70;;;6.33;;
75044;SDS011;63614;56.026;35.960;2023-08-07T00:14:04;10.48;;;5.47;;
75044;SDS011;63614;56.026;35.960;2023-08-07T00:16:30;8.15;;;5.43;;
75044;SDS011;63614;56.026;35.960;2023-08-07T00:18:56;10.90;;;5.32;;
75044;SDS011;63614;56.026;35.960;2023-08-07T00:21:23;15.43;;;5.63;;
75044;SDS011;63614;56.026;35.960;2023-08-07T00:23:49;11.82;;;5.43;;
75044;SDS011;63614;56.026;35.960;2023-08-07T00:26:15;12.55;;;5.80;;
75044;SDS011;63614;56.026;35.960;2023-08-07T00:28:41;9.70;;;5.65;;
75044;SDS011;63614;56.026;35.960;2023-08-07T00:31:07;9.95;;;5.53;;
75044;SDS011;63614;56.026;35.960;2023-08-07T00:33:33;11.02;;;5.13;;
75044;SDS011;63614;56.026;35.960;2023-08-07T00:35:59;9.77;;;5.18;;
75044;SDS011;63614;56.026;35.960;2023-08-07T00:38:25;8.70;;;5.05;;
75044;SDS011;63614;56.026;35.960;2023-08-07T00:40:53;12.48;;;5.10;;
75044;SDS011;63614;56.026;35.960;2023-08-07T00:43:19;6.97;;;4.93;;
75044;SDS011;63614;56.026;35.960;2023-08-07T00:45:46;16.23;;;5.53;;
75044;SDS011;63614;56.026;35.960;2023-08-07T00:48:13;14.75;;;5.30;;
75044;SDS011;63614;56.026;35.960;2023-08-07T00:50:42;16.55;;;5.72;;
75044;SDS011;63614;56.026;35.960;2023-08-07T00:53:10;10.88;;;5.30;;
75044;SDS011;63614;56.026;35.960;2023-08-07T00:55:36;11.90;;;5.50;;
75044;SDS011;63614;56.026;35.960;2023-08-07T00:58:02;10.93;;;5.40;;
75044;SDS011;63614;56.026;35.960;2023-08-07T01:00:28;12.20;;;4.90;;
75044;SDS011;63614;56.026;35.960;2023-08-07T01:02:56;13.23;;;4.85;;
75044;SDS011;63614;56.026;35.960;2023-08-07T01:05:25;14.00;;;5.53;;
75044;SDS011;63614;56.026;35.960;2023-08-07T01:07:51;12.65;;;5.13;;
75044;SDS011;63614;56.026;35.960;2023-08-07T01:10:25;8.68;;;5.20;;
75044;SDS011;63614;56.026;35.960;2023-08-07T01:13:14;9.95;;;5.28;;
75044;SDS011;63614;56.026;35.960;2023-08-07T01:15:51;10.95;;;5.28;;
75044;SDS011;63614;56.026;35.960;2023-08-07T01:18:21;9.93;;;5.18;;
75044;SDS011;63614;56.026;35.960;2023-08-07T01:20:48;8.52;;;5.18;;
75044;SDS011;63614;56.026;35.960;2023-08-07T01:23:14;11.95;;;5.43;;
75044;SDS011;63614;56.026;35.960;2023-08-07T01:25:40;15.80;;;5.70;;
75044;SDS011;63614;56.026;35.960;2023-08-07T01:28:09;11.05;;;5.10;;
75044;SDS011;63614;56.026;35.960;2023-08-07T01:30:42;12.27;;;5.15;;
75044;SDS011;63614;56.026;35.960;2023-08-07T01:33:21;10.07;;;5.18;;
75044;SDS011;63614;56.026;35.960;2023-08-07T01:35:55;12.80;;;5.35;;
75044;SDS011;63614;56.026;35.960;2023-08-07T01:38:24;11.40;;;5.53;;
75044;SDS011;63614;56.026;35.960;2023-08-07T01:40:51;7.72;;;4.95;;
75044;SDS011;63614;56.026;35.960;2023-08-07T01:45:44;11.35;;;5.30;;
75044;SDS011;63614;56.026;35.960;2023-08-07T01:48:10;18.08;;;5.63;;
75044;SDS011;63614;56.026;35.960;2023-08-07T01:50:37;10.32;;;5.45;;
75044;SDS011;63614;56.026;35.960;2023-08-07T01:53:04;14.35;;;5.25;;
75044;SDS011;63614;56.026;35.960;2023-08-07T01:55:31;13.63;;;5.65;;
75044;SDS011;63614;56.026;35.960;2023-08-07T01:57:56;10.10;;;5.35;;
75044;SDS011;63614;56.026;35.960;2023-08-07T02:00:24;12.80;;;4.90;;
75044;SDS011;63614;56.026;35.960;2023-08-07T02:03:07;9.90;;;4.93;;
75044;SDS011;63614;56.026;35.960;2023-08-07T02:05:33;9.90;;;5.32;;
75044;SDS011;63614;56.026;35.960;2023-08-07T02:08:00;9.32;;;4.80;;
75044;SDS011;63614;56.026;35.960;2023-08-07T02:10:26;11.25;;;4.90;;
75044;SDS011;63614;56.026;35.960;2023-08-07T02:12:53;8.95;;;4.72;;
75044;SDS011;63614;56.026;35.960;2023-08-07T02:15:19;10.70;;;4.93;;
75044;SDS011;63614;56.026;35.960;2023-08-07T02:17:50;9.25;;;4.60;;
75044;SDS011;63614;56.026;35.960;2023-08-07T02:20:16;10.60;;;4.70;;
75044;SDS011;63614;56.026;35.960;2023-08-07T02:22:43;14.93;;;4.97;;
75044;SDS011;63614;56.026;35.960;2023-08-07T02:25:09;7.28;;;4.20;;
75044;SDS011;63614;56.026;35.960;2023-08-07T02:27:38;11.38;;;4.85;;
75044;SDS011;63614;56.026;35.960;2023-08-07T02:30:05;10.27;;;4.55;;
75044;SDS011;63614;56.026;35.960;2023-08-07T02:32:33;10.88;;;4.75;;
75044;SDS011;63614;56.026;35.960;2023-08-07T02:34:59;9.80;;;4.68;;
75044;SDS011;63614;56.026;35.960;2023-08-07T02:37:25;9.83;;;4.80;;
75044;SDS011;63614;56.026;35.960;2023-08-07T02:39:51;9.15;;;4.38;;
75044;SDS011;63614;56.026;35.960;2023-08-07T02:42:19;11.95;;;4.80;;
75044;SDS011;63614;56.026;35.960;2023-08-07T02:44:46;13.80;;;4.50;;
75044;SDS011;63614;56.026;35.960;2023-08-07T02:47:12;10.30;;;4.63;;
75044;SDS011;63614;56.026;35.960;2023-08-07T02:49:38;9.33;;;4.40;;
75044;SDS011;63614;56.026;35.960;2023-08-07T02:52:04;9.23;;;4.47;;
75044;SDS011;63614;56.026;35.960;2023-08-07T02:54:30;8.53;;;4.13;;
75044;SDS011;63614;56.026;35.960;2023-08-07T02:56:56;10.47;;;4.43;;
75044;SDS011;63614;56.026;35.960;2023-08-07T03:01:49;6.38;;;4.07;;
75044;SDS011;63614;56.026;35.960;2023-08-07T03:04:15;9.05;;;4.40;;
75044;SDS011;63614;56.026;35.960;2023-08-07T03:06:41;20.40;;;4.40;;
75044;SDS011;63614;56.026;35.960;2023-08-07T03:09:07;15.37;;;4.10;;
75044;SDS011;63614;56.026;35.960;2023-08-07T03:11:33;14.73;;;4.33;;
75044;SDS011;63614;56.026;35.960;2023-08-07T03:13:59;12.30;;;3.90;;
75044;SDS011;63614;56.026;35.960;2023-08-07T03:16:25;6.63;;;3.57;;
75044;SDS011;63614;56.026;35.960;2023-08-07T03:18:50;10.03;;;4.10;;
75044;SDS011;63614;56.026;35.960;2023-08-07T03:21:17;10.07;;;3.63;;
75044;SDS011;63614;56.026;35.960;2023-08-07T03:23:43;9.38;;;4.18;;
75044;SDS011;63614;56.026;35.960;2023-08-07T03:28:38;10.20;;;4.35;;
75044;SDS011;63614;56.026;35.960;2023-08-07T03:31:05;20.58;;;4.00;;
75044;SDS011;63614;56.026;35.960;2023-08-07T03:33:34;10.13;;;4.00;;
75044;SDS011;63614;56.026;35.960;2023-08-07T03:35:59;7.50;;;3.90;;
75044;SDS011;63614;56.026;35.960;2023-08-07T03:38:26;11.95;;;4.25;;
75044;SDS011;63614;56.026;35.960;2023-08-07T03:40:54;6.95;;;3.85;;
75044;SDS011;63614;56.026;35.960;2023-08-07T03:43:20;7.65;;;3.70;;
75044;SDS011;63614;56.026;35.960;2023-08-07T03:45:46;8.17;;;3.57;;
75044;SDS011;63614;56.026;35.960;2023-08-07T03:48:13;9.70;;;3.70;;
75044;SDS011;63614;56.026;35.960;2023-08-07T03:50:40;10.00;;;3.88;;
75044;SDS011;63614;56.026;35.960;2023-08-07T03:53:06;8.07;;;3.33;;
75044;SDS011;63614;56.026;35.960;2023-08-07T03:55:36;8.43;;;4.00;;
75044;SDS011;63614;56.026;35.960;2023-08-07T03:58:03;15.00;;;3.90;;
75044;SDS011;63614;56.026;35.960;2023-08-07T04:00:29;9.75;;;3.88;;
75044;SDS011;63614;56.026;35.960;2023-08-07T04:05:20;9.07;;;3.67;;
75044;SDS011;63614;56.026;35.960;2023-08-07T04:07:46;10.05;;;3.80;;
75044;SDS011;63614;56.026;35.960;2023-08-07T04:10:12;8.10;;;3.67;;
75044;SDS011;63614;56.026;35.960;2023-08-07T04:12:38;11.15;;;3.13;;
75044;SDS011;63614;56.026;35.960;2023-08-07T04:15:04;9.02;;;3.50;;
75044;SDS011;63614;56.026;35.960;2023-08-07T04:17:32;8.98;;;4.05;;
75044;SDS011;63614;56.026;35.960;2023-08-07T04:19:58;9.02;;;3.75;;
75044;SDS011;63614;56.026;35.960;2023-08-07T04:22:24;8.75;;;3.63;;
75044;SDS011;63614;56.026;35.960;2023-08-07T04:24:50;11.20;;;3.70;;
75044;SDS011;63614;56.026;35.960;2023-08-07T04:27:16;10.20;;;3.63;;
75044;SDS011;63614;56.026;35.960;2023-08-07T04:29:42;8.23;;;3.38;;
75044;SDS011;63614;56.026;35.960;2023-08-07T04:32:09;10.85;;;3.40;;
75044;SDS011;63614;56.026;35.960;2023-08-07T04:34:35;10.60;;;3.67;;
75044;SDS011;63614;56.026;35.960;2023-08-07T04:37:01;12.20;;;3.75;;
75044;SDS011;63614;56.026;35.960;2023-08-07T04:39:27;7.93;;;3.13;;
75044;SDS011;63614;56.026;35.960;2023-08-07T04:41:52;9.68;;;3.40;;
75044;SDS011;63614;56.026;35.960;2023-08-07T04:44:18;16.40;;;3.78;;
75044;SDS011;63614;56.026;35.960;2023-08-07T04:46:44;9.80;;;3.40;;
75044;SDS011;63614;56.026;35.960;2023-08-07T04:49:10;15.52;;;3.15;;
75044;SDS011;63614;56.026;35.960;2023-08-07T04:51:36;10.10;;;3.70;;
75044;SDS011;63614;56.026;35.960;2023-08-07T04:54:01;14.10;;;4.38;;
75044;SDS011;63614;56.026;35.960;2023-08-07T04:56:27;9.13;;;3.78;;
75044;SDS011;63614;56.026;35.960;2023-08-07T04:58:53;9.45;;;4.00;;
75044;SDS011;63614;56.026;35.960;2023-08-07T05:01:19;9.15;;;3.40;;
75044;SDS011;63614;56.026;35.960;2023-08-07T05:03:46;11.23;;;3.40;;
75044;SDS011;63614;56.026;35.960;2023-08-07T05:06:12;9.50;;;3.10;;
75044;SDS011;63614;56.026;35.960;2023-08-07T05:08:38;10.18;;;3.15;;
75044;SDS011;63614;56.026;35.960;2023-08-07T05:11:04;8.05;;;3.42;;
75044;SDS011;63614;56.026;35.960;2023-08-07T05:13:30;12.20;;;3.45;;
75044;SDS011;63614;56.026;35.960;2023-08-07T05:15:56;9.32;;;3.58;;
75044;SDS011;63614;56.026;35.960;2023-08-07T05:18:21;13.05;;;4.18;;
75044;SDS011;63614;56.026;35.960;2023-08-07T05:20:47;10.63;;;3.20;;
75044;SDS011;63614;56.026;35.960;2023-08-07T05:23:13;8.65;;;3.30;;
75044;SDS011;63614;56.026;35.960;2023-08-07T05:25:39;7.97;;;3.13;;
75044;SDS011;63614;56.026;35.960;2023-08-07T05:28:05;8.90;;;2.83;;
75044;SDS011;63614;56.026;35.960;2023-08-07T05:30:31;14.52;;;3.35;;
75044;SDS011;63614;56.026;35.960;2023-08-07T05:32:57;13.55;;;3.45;;
75044;SDS011;63614;56.026;35.960;2023-08-07T05:35:23;11.00;;;3.28;;
75044;SDS011;63614;56.026;35.960;2023-08-07T05:37:49;20.25;;;3.47;;
75044;SDS011;63614;56.026;35.960;2023-08-07T05:40:15;7.05;;;2.92;;
75044;SDS011;63614;56.026;35.960;2023-08-07T05:45:07;9.52;;;3.13;;
75044;SDS011;63614;56.026;35.960;2023-08-07T05:47:35;8.60;;;3.05;;
75044;SDS011;63614;56.026;35.960;2023-08-07T05:50:01;15.38;;;3.08;;
75044;SDS011;63614;56.026;35.960;2023-08-07T05:52:33;16.50;;;3.50;;
75044;SDS011;63614;56.026;35.960;2023-08-07T05:54:59;11.40;;;3.13;;
75044;SDS011;63614;56.026;35.960;2023-08-07T05:57:25;13.70;;;3.35;;
75044;SDS011;63614;56.026;35.960;2023-08-07T05:59:51;8.82;;;3.00;;
75044;SDS011;63614;56.026;35.960;2023-08-07T06:02:17;13.57;;;3.22;;
75044;SDS011;63614;56.026;35.960;2023-08-07T06:04:43;13.73;;;3.10;;
75044;SDS011;63614;56.026;35.960;2023-08-07T06:07:10;8.15;;;2.88;;
75044;SDS011;63614;56.026;35.960;2023-08-07T06:09:36;11.55;;;3.42;;
75044;SDS011;63614;56.026;35.960;2023-08-07T06:12:02;5.45;;;2.90;;
75044;SDS011;63614;56.026;35.960;2023-08-07T06:14:28;8.68;;;2.65;;
75044;SDS011;63614;56.026;35.960;2023-08-07T06:16:55;12.13;;;3.17;;
75044;SDS011;63614;56.026;35.960;2023-08-07T06:19:23;9.13;;;2.70;;
75044;SDS011;63614;56.026;35.960;2023-08-07T06:21:49;12.90;;;3.30;;
75044;SDS011;63614;56.026;35.960;2023-08-07T06:24:15;10.57;;;2.80;;
75044;SDS011;63614;56.026;35.960;2023-08-07T06:26:41;7.77;;;3.20;;
75044;SDS011;63614;56.026;35.960;2023-08-07T06:29:06;6.10;;;2.90;;
75044;SDS011;63614;56.026;35.960;2023-08-07T06:31:32;8.80;;;2.93;;
75044;SDS011;63614;56.026;35.960;2023-08-07T06:33:58;12.10;;;3.23;;
75044;SDS011;63614;56.026;35.960;2023-08-07T06:36:25;8.45;;;3.00;;
75044;SDS011;63614;56.026;35.960;2023-08-07T06:38:52;7.10;;;3.13;;
75044;SDS011;63614;56.026;35.960;2023-08-07T06:41:19;7.47;;;2.75;;
75044;SDS011;63614;56.026;35.960;2023-08-07T06:43:45;19.60;;;3.55;;
75044;SDS011;63614;56.026;35.960;2023-08-07T06:46:11;6.82;;;3.33;;
75044;SDS011;63614;56.026;35.960;2023-08-07T06:48:38;6.70;;;2.80;;
75044;SDS011;63614;56.026;35.960;2023-08-07T06:51:04;13.40;;;2.75;;
75044;SDS011;63614;56.026;35.960;2023-08-07T06:53:30;9.98;;;3.10;;
75044;SDS011;63614;56.026;35.960;2023-08-07T06:55:56;5.35;;;2.95;;
75044;SDS011;63614;56.026;35.960;2023-08-07T06:58:22;8.50;;;3.45;;
75044;SDS011;63614;56.026;35.960;2023-08-07T07:00:48;13.60;;;3.40;;
75044;SDS011;63614;56.026;35.960;2023-08-07T07:03:14;14.67;;;3.27;;
75044;SDS011;63614;56.026;35.960;2023-08-07T07:05:40;10.60;;;3.43;;
75044;SDS011;63614;56.026;35.960;2023-08-07T07:08:08;15.32;;;3.58;;
75044;SDS011;63614;56.026;35.960;2023-08-07T07:10:34;12.37;;;3.37;;
75044;SDS011;63614;56.026;35.960;2023-08-07T07:13:00;16.70;;;3.80;;
75044;SDS011;63614;56.026;35.960;2023-08-07T07:15:26;28.67;;;3.90;;
75044;SDS011;63614;56.026;35.960;2023-08-07T07:17:51;17.77;;;3.30;;
75044;SDS011;63614;56.026;35.960;2023-08-07T07:20:17;23.73;;;3.73;;
75044;SDS011;63614;56.026;35.960;2023-08-07T07:22:43;5.40;;;2.60;;
75044;SDS011;63614;56.026;35.960;2023-08-07T07:25:09;13.43;;;3.07;;
75044;SDS011;63614;56.026;35.960;2023-08-07T07:27:35;13.13;;;3.38;;
75044;SDS011;63614;56.026;35.960;2023-08-07T07:30:01;11.33;;;3.70;;
75044;SDS011;63614;56.026;35.960;2023-08-07T07:32:30;6.30;;;2.58;;
75044;SDS011;63614;56.026;35.960;2023-08-07T07:34:56;17.33;;;3.20;;
75044;SDS011;63614;56.026;35.960;2023-08-07T07:37:22;11.73;;;3.10;;
75044;SDS011;63614;56.026;35.960;2023-08-07T07:39:48;9.77;;;3.00;;
75044;SDS011;63614;56.026;35.960;2023-08-07T07:42:13;8.13;;;2.70;;
75044;SDS011;63614;56.026;35.960;2023-08-07T07:44:39;9.20;;;2.80;;
75044;SDS011;63614;56.026;35.960;2023-08-07T07:47:06;11.80;;;2.88;;
75044;SDS011;63614;56.026;35.960;2023-08-07T07:49:33;6.32;;;2.63;;
75044;SDS011;63614;56.026;35.960;2023-08-07T07:51:59;10.87;;;2.83;;
75044;SDS011;63614;56.026;35.960;2023-08-07T07:54:25;20.10;;;3.00;;
75044;SDS011;63614;56.026;35.960;2023-08-07T07:56:51;8.20;;;2.73;;
75044;SDS011;63614;56.026;35.960;2023-08-07T07:59:17;23.63;;;3.03;;
75044;SDS011;63614;56.026;35.960;2023-08-07T08:01:42;11.55;;;2.78;;
75044;SDS011;63614;56.026;35.960;2023-08-07T08:04:08;6.33;;;2.50;;
75044;SDS011;63614;56.026;35.960;2023-08-07T08:06:35;9.95;;;2.63;;
75044;SDS011;63614;56.026;35.960;2023-08-07T08:09:01;9.55;;;2.85;;
75044;SDS011;63614;56.026;35.960;2023-08-07T08:11:30;8.65;;;2.67;;
75044;SDS011;63614;56.026;35.960;2023-08-07T08:13:56;10.27;;;2.55;;
75044;SDS011;63614;56.026;35.960;2023-08-07T08:16:22;9.07;;;2.33;;
75044;SDS011;63614;56.026;35.960;2023-08-07T08:18:48;9.73;;;2.35;;
75044;SDS011;63614;56.026;35.960;2023-08-07T08:21:14;11.65;;;2.80;;
75044;SDS011;63614;56.026;35.960;2023-08-07T08:23:40;5.00;;;2.33;;
75044;SDS011;63614;56.026;35.960;2023-08-07T08:26:06;10.50;;;2.50;;
75044;SDS011;63614;56.026;35.960;2023-08-07T08:28:32;10.17;;;2.70;;
75044;SDS011;63614;56.026;35.960;2023-08-07T08:30:58;10.57;;;2.60;;
75044;SDS011;63614;56.026;35.960;2023-08-07T08:33:24;17.27;;;2.83;;
75044;SDS011;63614;56.026;35.960;2023-08-07T08:35:50;16.75;;;2.65;;
75044;SDS011;63614;56.026;35.960;2023-08-07T08:38:16;11.25;;;2.38;;
75044;SDS011;63614;56.026;35.960;2023-08-07T08:40:43;9.05;;;2.28;;
75044;SDS011;63614;56.026;35.960;2023-08-07T08:43:10;12.95;;;2.63;;
75044;SDS011;63614;56.026;35.960;2023-08-07T08:45:39;10.18;;;2.47;;
75044;SDS011;63614;56.026;35.960;2023-08-07T08:48:07;10.93;;;2.38;;
75044;SDS011;63614;56.026;35.960;2023-08-07T08:50:36;6.90;;;2.67;;
75044;SDS011;63614;56.026;35.960;2023-08-07T08:53:04;14.60;;;2.47;;
75044;SDS011;63614;56.026;35.960;2023-08-07T08:55:30;7.27;;;2.50;;
75044;SDS011;63614;56.026;35.960;2023-08-07T08:57:56;5.43;;;2.13;;
75044;SDS011;63614;56.026;35.960;2023-08-07T09:00:26;13.90;;;3.03;;
75044;SDS011;63614;56.026;35.960;2023-08-07T09:02:55;11.18;;;2.33;;
75044;SDS011;63614;56.026;35.960;2023-08-07T09:05:20;8.60;;;2.50;;
75044;SDS011;63614;56.026;35.960;2023-08-07T09:07:47;10.13;;;2.25;;
75044;SDS011;63614;56.026;35.960;2023-08-07T09:10:14;13.30;;;2.60;;
75044;SDS011;63614;56.026;35.960;2023-08-07T09:13:15;32.25;;;2.70;;
75044;SDS011;63614;56.026;35.960;2023-08-07T09:15:36;8.27;;;2.40;;
75044;SDS011;63614;56.026;35.960;2023-08-07T09:18:09;8.90;;;2.88;;
75044;SDS011;63614;56.026;35.960;2023-08-07T09:20:36;8.10;;;2.20;;
75044;SDS011;63614;56.026;35.960;2023-08-07T09:23:06;9.50;;;2.45;;
75044;SDS011;63614;56.026;35.960;2023-08-07T09:25:33;8.47;;;2.10;;
75044;SDS011;63614;56.026;35.960;2023-08-07T09:28:06;9.27;;;2.78;;
75044;SDS011;63614;56.026;35.960;2023-08-07T09:30:33;18.90;;;2.60;;
75044;SDS011;63614;56.026;35.960;2023-08-07T09:33:00;10.32;;;2.40;;
75044;SDS011;63614;56.026;35.960;2023-08-07T09:37:54;17.23;;;2.10;;
75044;SDS011;63614;56.026;35.960;2023-08-07T09:40:22;21.25;;;2.42;;
75044;SDS011;63614;56.026;35.960;2023-08-07T09:42:51;14.17;;;2.70;;
75044;SDS011;63614;56.026;35.960;2023-08-07T09:45:19;10.15;;;2.25;;
75044;SDS011;63614;56.026;35.960;2023-08-07T09:47:45;7.93;;;2.38;;
75044;SDS011;63614;56.026;35.960;2023-08-07T09:50:17;15.97;;;2.07;;
75044;SDS011;63614;56.026;35.960;2023-08-07T09:52:46;9.52;;;2.58;;
75044;SDS011;63614;56.026;35.960;2023-08-07T09:55:13;13.57;;;2.40;;
75044;SDS011;63614;56.026;35.960;2023-08-07T09:57:44;24.25;;;2.70;;
75044;SDS011;63614;56.026;35.960;2023-08-07T10:00:11;17.80;;;2.78;;
75044;SDS011;63614;56.026;35.960;2023-08-07T10:02:41;13.02;;;2.45;;
75044;SDS011;63614;56.026;35.960;2023-08-07T10:05:11;7.00;;;2.40;;
75044;SDS011;63614;56.026;35.960;2023-08-07T10:07:38;14.05;;;2.50;;
75044;SDS011;63614;56.026;35.960;2023-08-07T10:12:35;19.02;;;2.45;;
75044;SDS011;63614;56.026;35.960;2023-08-07T10:15:02;6.75;;;2.20;;
75044;SDS011;63614;56.026;35.960;2023-08-07T10:17:32;12.30;;;2.47;;
75044;SDS011;63614;56.026;35.960;2023-08-07T10:19:58;12.00;;;2.40;;
75044;SDS011;63614;56.026;35.960;2023-08-07T10:22:25;20.15;;;3.00;;
75044;SDS011;63614;56.026;35.960;2023-08-07T10:24:53;8.65;;;2.38;;
75044;SDS011;63614;56.026;35.960;2023-08-07T10:27:20;12.05;;;2.30;;
75044;SDS011;63614;56.026;35.960;2023-08-07T10:29:49;12.50;;;2.30;;
75044;SDS011;63614;56.026;35.960;2023-08-07T10:32:17;8.23;;;2.50;;
75044;SDS011;63614;56.026;35.960;2023-08-07T10:34:49;12.00;;;2.42;;
75044;SDS011;63614;56.026;35.960;2023-08-07T10:40:07;10.82;;;2.60;;
75044;SDS011;63614;56.026;35.960;2023-08-07T10:42:56;9.20;;;2.28;;
75044;SDS011;63614;56.026;35.960;2023-08-07T10:45:27;17.92;;;2.55;;
75044;SDS011;63614;56.026;35.960;2023-08-07T10:48:12;7.55;;;2.40;;
75044;SDS011;63614;56.026;35.960;2023-08-07T10:53:20;19.63;;;2.40;;
75044;SDS011;63614;56.026;35.960;2023-08-07T10:55:48;13.85;;;2.08;;
75044;SDS011;63614;56.026;35.960;2023-08-07T10:58:24;14.50;;;1.95;;
75044;SDS011;63614;56.026;35.960;2023-08-07T11:03:50;14.82;;;2.60;;
75044;SDS011;63614;56.026;35.960;2023-08-07T11:06:22;23.23;;;2.63;;
75044;SDS011;63614;56.026;35.960;2023-08-07T11:08:53;11.65;;;2.40;;
75044;SDS011;63614;56.026;35.960;2023-08-07T11:11:19;8.75;;;2.22;;
75044;SDS011;63614;56.026;35.960;2023-08-07T11:13:45;11.25;;;2.35;;
75044;SDS011;63614;56.026;35.960;2023-08-07T11:16:11;7.22;;;2.13;;
75044;SDS011;63614;56.026;35.960;2023-08-07T11:18:38;19.15;;;2.35;;
75044;SDS011;63614;56.026;35.960;2023-08-07T11:21:07;26.40;;;2.85;;
75044;SDS011;63614;56.026;35.960;2023-08-07T11:23:38;15.35;;;2.50;;
75044;SDS011;63614;56.026;35.960;2023-08-07T11:26:05;6.93;;;2.40;;
75044;SDS011;63614;56.026;35.960;2023-08-07T11:28:32;11.02;;;2.30;;
75044;SDS011;63614;56.026;35.960;2023-08-07T11:30:58;12.20;;;2.72;;
75044;SDS011;63614;56.026;35.960;2023-08-07T11:33:24;15.65;;;2.28;;
75044;SDS011;63614;56.026;35.960;2023-08-07T11:35:51;7.43;;;2.40;;
75044;SDS011;63614;56.026;35.960;2023-08-07T11:38:35;9.60;;;2.72;;
75044;SDS011;63614;56.026;35.960;2023-08-07T11:41:03;14.48;;;2.38;;
75044;SDS011;63614;56.026;35.960;2023-08-07T11:43:31;14.88;;;2.33;;
75044;SDS011;63614;56.026;35.960;2023-08-07T11:45:59;8.30;;;2.25;;
75044;SDS011;63614;56.026;35.960;2023-08-07T11:48:27;26.42;;;2.38;;
75044;SDS011;63614;56.026;35.960;2023-08-07T11:50:54;8.85;;;2.20;;
75044;SDS011;63614;56.026;35.960;2023-08-07T11:58:21;13.48;;;2.47;;
75044;SDS011;63614;56.026;35.960;2023-08-07T12:05:52;8.13;;;2.03;;
75044;SDS011;63614;56.026;35.960;2023-08-07T12:08:20;11.75;;;2.30;;
75044;SDS011;63614;56.026;35.960;2023-08-07T12:10:53;15.23;;;2.30;;
75044;SDS011;63614;56.026;35.960;2023-08-07T12:13:20;11.18;;;2.28;;
75044;SDS011;63614;56.026;35.960;2023-08-07T12:15:53;8.68;;;2.08;;
75044;SDS011;63614;56.026;35.960;2023-08-07T12:18:20;11.80;;;2.20;;
75044;SDS011;63614;56.026;35.960;2023-08-07T12:20:49;14.68;;;2.50;;
75044;SDS011;63614;56.026;35.960;2023-08-07T12:23:17;20.20;;;2.53;;
75044;SDS011;63614;56.026;35.960;2023-08-07T12:25:44;11.00;;;2.13;;
75044;SDS011;63614;56.026;35.960;2023-08-07T12:30:36;10.02;;;2.25;;
75044;SDS011;63614;56.026;35.960;2023-08-07T12:33:03;11.95;;;2.10;;
75044;SDS011;63614;56.026;35.960;2023-08-07T12:35:33;11.50;;;2.55;;
75044;SDS011;63614;56.026;35.960;2023-08-07T12:38:00;8.82;;;2.40;;
75044;SDS011;63614;56.026;35.960;2023-08-07T12:40:30;9.82;;;2.22;;
75044;SDS011;63614;56.026;35.960;2023-08-07T12:42:56;35.20;;;2.67;;
75044;SDS011;63614;56.026;35.960;2023-08-07T12:45:23;13.35;;;2.17;;
75044;SDS011;63614;56.026;35.960;2023-08-07T12:47:49;14.57;;;2.20;;
75044;SDS011;63614;56.026;35.960;2023-08-07T12:50:14;11.23;;;2.13;;
75044;SDS011;63614;56.026;35.960;2023-08-07T12:52:40;6.05;;;2.72;;
75044;SDS011;63614;56.026;35.960;2023-08-07T12:55:06;7.67;;;2.30;;
75044;SDS011;63614;56.026;35.960;2023-08-07T12:57:33;9.40;;;2.47;;
75044;SDS011;63614;56.026;35.960;2023-08-07T12:59:59;5.68;;;2.20;;
75044;SDS011;63614;56.026;35.960;2023-08-07T13:02:25;16.07;;;2.30;;
75044;SDS011;63614;56.026;35.960;2023-08-07T13:04:50;9.80;;;2.00;;
75044;SDS011;63614;56.026;35.960;2023-08-07T13:07:17;11.38;;;3.40;;
75044;SDS011;63614;56.026;35.960;2023-08-07T13:12:09;9.73;;;2.53;;
75044;SDS011;63614;56.026;35.960;2023-08-07T13:14:34;8.23;;;2.57;;
75044;SDS011;63614;56.026;35.960;2023-08-07T13:17:00;12.17;;;2.93;;
75044;SDS011;63614;56.026;35.960;2023-08-07T13:19:26;19.23;;;3.10;;
75044;SDS011;63614;56.026;35.960;2023-08-07T13:21:55;6.35;;;2.28;;
75044;SDS011;63614;56.026;35.960;2023-08-07T13:24:20;16.43;;;2.30;;
75044;SDS011;63614;56.026;35.960;2023-08-07T13:26:46;12.23;;;3.20;;
75044;SDS011;63614;56.026;35.960;2023-08-07T13:29:12;19.40;;;3.10;;
75044;SDS011;63614;56.026;35.960;2023-08-07T13:31:39;15.10;;;2.85;;
75044;SDS011;63614;56.026;35.960;2023-08-07T13:34:11;8.75;;;2.38;;
75044;SDS011;63614;56.026;35.960;2023-08-07T13:36:38;6.32;;;2.45;;
75044;SDS011;63614;56.026;35.960;2023-08-07T13:39:04;11.65;;;2.65;;
75044;SDS011;63614;56.026;35.960;2023-08-07T13:41:31;5.85;;;2.28;;
75044;SDS011;63614;56.026;35.960;2023-08-07T13:46:23;8.32;;;2.90;;
75044;SDS011;63614;56.026;35.960;2023-08-07T13:48:50;8.98;;;2.30;;
75044;SDS011;63614;56.026;35.960;2023-08-07T13:51:16;16.17;;;2.55;;
75044;SDS011;63614;56.026;35.960;2023-08-07T13:53:43;7.97;;;2.95;;
75044;SDS011;63614;56.026;35.960;2023-08-07T13:56:09;15.18;;;3.00;;
75044;SDS011;63614;56.026;35.960;2023-08-07T13:58:41;23.23;;;3.00;;
75044;SDS011;63614;56.026;35.960;2023-08-07T14:01:07;8.35;;;2.60;;
75044;SDS011;63614;56.026;35.960;2023-08-07T14:03:33;10.80;;;2.17;;
75044;SDS011;63614;56.026;35.960;2023-08-07T14:06:00;14.85;;;2.55;;
75044;SDS011;63614;56.026;35.960;2023-08-07T14:08:26;16.70;;;2.60;;
75044;SDS011;63614;56.026;35.960;2023-08-07T14:10:52;10.15;;;3.22;;
75044;SDS011;63614;56.026;35.960;2023-08-07T14:13:20;9.95;;;2.80;;
75044;SDS011;63614;56.026;35.960;2023-08-07T14:15:46;5.93;;;2.63;;
75044;SDS011;63614;56.026;35.960;2023-08-07T14:18:12;7.53;;;2.60;;
75044;SDS011;63614;56.026;35.960;2023-08-07T14:20:40;15.05;;;2.97;;
75044;SDS011;63614;56.026;35.960;2023-08-07T14:23:06;7.27;;;2.70;;
75044;SDS011;63614;56.026;35.960;2023-08-07T14:25:32;13.53;;;2.90;;
75044;SDS011;63614;56.026;35.960;2023-08-07T14:27:57;14.27;;;3.37;;
75044;SDS011;63614;56.026;35.960;2023-08-07T14:30:24;14.27;;;3.42;;
75044;SDS011;63614;56.026;35.960;2023-08-07T14:32:50;8.90;;;3.13;;
75044;SDS011;63614;56.026;35.960;2023-08-07T14:35:16;14.60;;;3.20;;
75044;SDS011;63614;56.026;35.960;2023-08-07T14:37:41;15.37;;;3.17;;
75044;SDS011;63614;56.026;35.960;2023-08-07T14:40:07;8.65;;;3.20;;
75044;SDS011;63614;56.026;35.960;2023-08-07T14:42:33;14.80;;;3.33;;
75044;SDS011;63614;56.026;35.960;2023-08-07T14:44:59;15.38;;;3.00;;
75044;SDS011;63614;56.026;35.960;2023-08-07T14:47:25;9.70;;;2.85;;
75044;SDS011;63614;56.026;35.960;2023-08-07T14:49:51;10.23;;;3.30;;
75044;SDS011;63614;56.026;35.960;2023-08-07T14:52:17;13.30;;;3.20;;
75044;SDS011;63614;56.026;35.960;2023-08-07T14:54:43;9.43;;;2.57;;
75044;SDS011;63614;56.026;35.960;2023-08-07T14:57:09;13.23;;;2.78;;
75044;SDS011;63614;56.026;35.960;2023-08-07T14:59:35;15.70;;;3.27;;
75044;SDS011;63614;56.026;35.960;2023-08-07T15:02:01;9.27;;;3.07;;
75044;SDS011;63614;56.026;35.960;2023-08-07T15:04:27;7.50;;;3.00;;
75044;SDS011;63614;56.026;35.960;2023-08-07T15:06:53;18.80;;;3.40;;
75044;SDS011;63614;56.026;35.960;2023-08-07T15:09:18;7.77;;;2.80;;